Time;durP1;ratioP1;P1;durP2;ratioP2;P2;SDS_P1;SDS_P2;PMS_P1;PMS_P2;Temp;Humidity;BMP_temperature;BMP_pressure;BME280_temperature;BME280_humidity;BME280_pressure;Samples;Min_cycle;Max_cycle;Signal;HPM_P1;HPM_P2
2022/09/08 00:01:59;;;;;;;3.57;1.53;;;;;;;21.69;44.72;99323.66;6070171;23;20149;-89
2022/09/08 00:04:26;;;;;;;4.73;1.67;;;;;;;21.66;45.15;99323.09;6069827;23;20475;-89
2022/09/08 00:06:51;;;;;;;5.73;1.83;;;;;;;21.62;45.29;99322.53;6069811;23;20156;-88
2022/09/08 00:09:17;;;;;;;3.07;1.33;;;;;;;21.52;45.32;99321.72;6044743;23;20227;-89
2022/09/08 00:11:42;;;;;;;3.33;1.60;;;;;;;21.57;45.34;99323.97;6044672;23;20161;-89
2022/09/08 00:14:09;;;;;;;4.93;2.27;;;;;;;21.48;45.56;99325.69;6070467;23;20153;-89
2022/09/08 00:16:38;;;;;;;2.67;1.27;;;;;;;21.43;45.71;99328.75;6069773;23;20173;-88
2022/09/08 00:19:04;;;;;;;3.90;1.53;;;;;;;21.38;45.89;99314.22;6069682;23;20152;-88
2022/09/08 00:21:30;;;;;;;3.60;1.70;;;;;;;21.33;45.99;99317.28;6069685;23;20272;-89
2022/09/08 00:23:56;;;;;;;5.60;1.70;;;;;;;21.31;46.08;99313.94;6045011;23;20186;-89
2022/09/08 00:26:21;;;;;;;4.40;1.60;;;;;;;21.19;46.77;99315.09;6070344;23;20146;-89
2022/09/08 00:28:48;;;;;;;3.03;1.23;;;;;;;21.14;47.14;99316.50;6044560;23;20168;-88
2022/09/08 00:31:13;;;;;;;2.20;1.17;;;;;;;21.14;46.81;99313.84;6044526;23;20498;-89
2022/09/08 00:33:39;;;;;;;3.10;1.87;;;;;;;21.09;47.06;99316.94;6069541;23;20592;-89
2022/09/08 00:36:07;;;;;;;3.60;1.30;;;;;;;20.94;47.55;99317.47;6044355;23;20184;-88
2022/09/08 00:38:33;;;;;;;3.30;1.47;;;;;;;20.91;47.74;99326.56;6069508;23;20212;-88
2022/09/08 00:40:58;;;;;;;3.20;1.67;;;;;;;20.94;47.51;99320.16;6069695;23;20574;-88
2022/09/08 00:44:01;;;;;;;3.97;1.70;;;;;;;20.90;47.73;99319.56;6069751;23;20220;-89
2022/09/08 00:46:39;;;;;;;5.77;1.63;;;;;;;20.89;47.47;99330.34;6046280;23;20183;-88
2022/09/08 00:49:17;;;;;;;5.17;1.77;;;;;;;20.88;47.58;99329.53;6069331;23;20149;-88
2022/09/08 00:51:47;;;;;;;2.90;1.43;;;;;;;20.86;47.49;99334.16;6070451;23;20137;-88
2022/09/08 00:54:15;;;;;;;2.60;1.10;;;;;;;20.80;47.52;99326.75;6069536;23;20422;-89
2022/09/08 00:56:42;;;;;;;3.77;1.60;;;;;;;20.80;47.81;99319.59;6069227;23;20183;-89
2022/09/08 00:59:08;;;;;;;3.10;1.30;;;;;;;20.78;48.11;99326.00;6069281;23;20149;-88
2022/09/08 01:01:34;;;;;;;4.47;1.50;;;;;;;20.69;48.40;99326.88;6044277;23;20168;-89
2022/09/08 01:04:01;;;;;;;3.00;1.30;;;;;;;20.63;48.37;99333.59;6044217;23;20161;-89
2022/09/08 01:13:01;;;;;;;3.83;1.70;;;;;;;20.42;49.15;99334.69;6069627;23;20561;-88
2022/09/08 01:15:28;;;;;;;9.43;2.10;;;;;;;20.37;49.18;99332.44;6069520;23;20554;-89
2022/09/08 01:17:55;;;;;;;2.80;1.40;;;;;;;20.27;49.28;99328.06;6043989;23;20204;-89
2022/09/08 01:20:27;;;;;;;3.83;1.23;;;;;;;20.28;49.06;99327.09;6069163;23;20153;-88
2022/09/08 01:23:10;;;;;;;2.50;1.40;;;;;;;20.27;49.03;99331.56;6069502;23;20145;-88
2022/09/08 01:26:02;;;;;;;2.63;1.50;;;;;;;20.28;48.77;99327.94;6069099;23;20209;-89
2022/09/08 01:28:30;;;;;;;5.43;1.50;;;;;;;20.23;48.67;99331.00;6044083;23;20216;-88
2022/09/08 01:30:55;;;;;;;4.23;1.80;;;;;;;20.03;49.41;99323.91;6069340;23;20149;-88
2022/09/08 01:33:21;;;;;;;5.63;2.07;;;;;;;20.02;49.07;99324.06;6069012;23;20216;-88
2022/09/08 01:35:48;;;;;;;3.63;1.53;;;;;;;20.04;48.99;99325.63;6043843;23;20465;-89
2022/09/08 01:38:13;;;;;;;3.73;1.37;;;;;;;20.07;48.84;99325.31;6068929;23;20156;-88
2022/09/08 01:40:39;;;;;;;2.37;1.37;;;;;;;19.99;49.07;99324.34;6069004;23;20153;-88
2022/09/08 01:43:08;;;;;;;4.47;1.30;;;;;;;20.01;48.99;99325.88;6069227;23;20153;-89
2022/09/08 01:45:34;;;;;;;6.97;1.90;;;;;;;19.99;49.12;99327.84;6043897;23;20532;-88
2022/09/08 01:47:59;;;;;;;2.63;1.20;;;;;;;19.97;48.97;99324.44;6068829;23;20225;-89
2022/09/08 01:50:25;;;;;;;3.17;1.50;;;;;;;19.85;49.36;99330.84;6069199;23;20149;-88
2022/09/08 01:52:50;;;;;;;4.20;1.80;;;;;;;19.79;49.75;99330.53;6068956;23;20696;-88
2022/09/08 01:55:16;;;;;;;4.03;1.70;;;;;;;19.64;50.30;99338.03;6043962;23;20161;-88
2022/09/08 01:57:42;;;;;;;3.73;1.63;;;;;;;19.57;50.57;99336.91;6068766;23;20187;-89
2022/09/08 02:00:08;;;;;;;4.23;1.40;;;;;;;19.51;50.89;99340.06;6069068;23;20360;-89
2022/09/08 02:02:34;;;;;;;2.63;1.63;;;;;;;19.60;50.75;99333.97;6068661;23;20659;-88
2022/09/08 02:04:59;;;;;;;3.40;1.50;;;;;;;19.63;50.39;99337.19;6069060;23;20199;-89
2022/09/08 02:07:25;;;;;;;2.83;1.50;;;;;;;19.63;50.27;99335.53;6069019;23;20145;-88
2022/09/08 02:09:51;;;;;;;4.20;1.70;;;;;;;19.54;50.78;99338.00;6068671;23;20155;-88
2022/09/08 02:12:16;;;;;;;2.60;1.53;;;;;;;19.53;50.78;99343.44;6068706;23;20153;-89
2022/09/08 02:14:42;;;;;;;4.83;1.93;;;;;;;19.42;50.96;99333.72;6068664;23;20153;-88
2022/09/08 02:17:07;;;;;;;8.40;1.70;;;;;;;19.32;51.12;99343.44;6068837;23;20505;-88
2022/09/08 02:19:32;;;;;;;3.50;1.63;;;;;;;19.26;51.46;99338.63;6043545;23;20168;-88
2022/09/08 02:21:58;;;;;;;5.43;1.57;;;;;;;19.29;51.91;99337.50;6068755;23;20533;-88
2022/09/08 02:24:24;;;;;;;3.97;1.90;;;;;;;19.23;52.11;99328.28;6068872;23;20153;-88
2022/09/08 02:26:49;;;;;;;4.63;1.63;;;;;;;19.24;52.29;99329.94;6068919;23;20157;-88
2022/09/08 02:29:15;;;;;;;4.23;1.57;;;;;;;19.14;52.63;99318.41;6043399;23;20160;-89
2022/09/08 02:31:41;;;;;;;4.97;2.37;;;;;;;19.11;52.77;99318.66;6068854;23;20160;-89
2022/09/08 02:34:08;;;;;;;4.57;1.57;;;;;;;19.07;52.61;99314.59;6043403;23;20497;-89
2022/09/08 02:36:33;;;;;;;3.30;1.57;;;;;;;19.01;53.00;99317.75;6043306;23;20185;-88
2022/09/08 02:38:59;;;;;;;6.60;1.80;;;;;;;18.97;52.84;99314.50;6043402;23;20172;-88
2022/09/08 02:41:27;;;;;;;2.93;1.50;;;;;;;18.95;52.78;99312.97;6043361;23;20157;-89
2022/09/08 02:43:54;;;;;;;3.50;1.67;;;;;;;18.95;52.92;99311.16;6068392;23;20157;-88
2022/09/08 02:46:20;;;;;;;2.30;1.40;;;;;;;19.00;52.64;99314.25;6068412;23;20460;-88
2022/09/08 02:48:46;;;;;;;2.87;1.57;;;;;;;18.96;52.68;99318.16;6043251;23;20673;-88
2022/09/08 02:51:14;;;;;;;5.10;2.10;;;;;;;18.88;52.98;99304.69;6068346;23;20177;-88
2022/09/08 02:53:41;;;;;;;5.43;2.10;;;;;;;18.93;52.96;99314.91;6068315;23;20207;-88
2022/09/08 02:56:07;;;;;;;3.03;1.60;;;;;;;18.98;52.47;99308.25;6068538;23;20180;-88
2022/09/08 02:58:33;;;;;;;4.73;1.73;;;;;;;18.93;52.35;99307.78;6043238;23;20645;-89
2022/09/08 03:00:59;;;;;;;4.00;1.70;;;;;;;18.77;53.08;99302.06;6043233;23;20158;-88
2022/09/08 03:03:25;;;;;;;3.20;1.73;;;;;;;18.71;53.30;99305.22;6043332;23;20171;-89
2022/09/08 03:05:51;;;;;;;2.73;1.27;;;;;;;18.64;53.78;99297.91;6043190;23;20159;-88
2022/09/08 03:08:18;;;;;;;5.30;2.30;;;;;;;18.64;53.63;99295.25;6043388;23;20196;-88
2022/09/08 03:10:44;;;;;;;5.20;1.63;;;;;;;18.64;53.68;99301.41;6068575;23;20157;-89
2022/09/08 03:13:10;;;;;;;6.23;1.83;;;;;;;18.61;53.56;99306.97;6068282;23;20157;-89
2022/09/08 03:15:37;;;;;;;2.77;1.80;;;;;;;18.58;53.67;99303.72;6068173;23;20618;-88
2022/09/08 03:18:05;;;;;;;5.73;1.80;;;;;;;18.62;53.32;99297.19;6068246;23;20148;-89
2022/09/08 03:20:32;;;;;;;3.40;1.83;;;;;;;18.53;53.87;99300.59;6044268;23;20158;-89
2022/09/08 03:22:59;;;;;;;4.03;1.67;;;;;;;18.43;54.42;99311.09;6068532;23;20150;-88
2022/09/08 03:25:25;;;;;;;4.40;1.77;;;;;;;18.51;53.92;99303.38;6068153;23;20624;-88
2022/09/08 03:27:50;;;;;;;4.33;1.90;;;;;;;18.42;54.08;99304.13;6043494;23;20153;-88
2022/09/08 03:30:17;;;;;;;2.77;1.30;;;;;;;18.37;54.25;99306.28;6043170;23;20188;-88
2022/09/08 03:32:44;;;;;;;3.47;1.77;;;;;;;18.38;54.55;99319.44;6068472;23;20157;-89
2022/09/08 03:35:12;;;;;;;3.17;1.40;;;;;;;18.44;54.23;99318.09;6068153;23;20188;-87
2022/09/08 03:37:38;;;;;;;4.90;2.23;;;;;;;18.43;54.26;99324.38;6042977;23;20515;-88
2022/09/08 03:40:06;;;;;;;4.37;2.10;;;;;;;18.41;53.94;99318.34;6068098;23;20154;-89
2022/09/08 03:42:35;;;;;;;2.23;1.43;;;;;;;18.30;54.37;99321.03;6042970;23;20168;-88
2022/09/08 03:45:06;;;;;;;3.73;1.30;;;;;;;18.29;54.46;99329.97;6043030;23;20184;-89
2022/09/08 03:47:32;;;;;;;4.03;1.93;;;;;;;18.28;54.43;99328.28;6068176;23;20140;-89
2022/09/08 03:49:58;;;;;;;3.70;2.40;;;;;;;18.17;54.82;99330.94;6068104;23;20160;-88
2022/09/08 03:52:25;;;;;;;2.57;1.37;;;;;;;18.10;54.98;99329.75;6067938;23;20242;-89
2022/09/08 03:54:51;;;;;;;4.33;1.63;;;;;;;18.01;55.55;99341.09;6067888;23;20149;-89
2022/09/08 03:57:21;;;;;;;3.77;1.80;;;;;;;18.02;55.43;99337.50;6068248;23;20192;-88
2022/09/08 03:59:48;;;;;;;3.50;1.60;;;;;;;18.04;55.11;99330.25;6042973;23;20145;-88
2022/09/08 04:02:14;;;;;;;3.20;1.60;;;;;;;18.04;55.31;99338.19;6042959;23;20192;-88
2022/09/08 04:04:40;;;;;;;3.83;2.20;;;;;;;18.06;55.18;99338.91;6042962;23;20154;-89
2022/09/08 04:07:07;;;;;;;3.27;1.73;;;;;;;18.12;55.14;99333.13;6042903;23;20168;-89
2022/09/08 04:09:32;;;;;;;3.33;1.63;;;;;;;18.07;55.54;99333.50;6043265;23;20160;-89
2022/09/08 04:11:58;;;;;;;4.93;2.00;;;;;;;18.01;55.77;99341.94;6042963;23;20164;-88
2022/09/08 04:14:23;;;;;;;4.50;2.20;;;;;;;18.07;55.24;99341.47;6068624;23;20158;-88
2022/09/08 04:16:48;;;;;;;3.60;1.80;;;;;;;18.02;55.62;99343.66;6068343;23;20200;-88
2022/09/08 04:19:15;;;;;;;4.67;2.80;;;;;;;18.05;55.55;99348.72;6068882;23;20171;-88
2022/09/08 04:21:40;;;;;;;2.93;1.77;;;;;;;18.06;55.79;99344.22;6070032;23;20149;-89
2022/09/08 04:24:06;;;;;;;4.67;1.87;;;;;;;18.01;55.87;99354.34;6070027;23;20160;-89
2022/09/08 04:26:31;;;;;;;5.10;2.77;;;;;;;17.95;56.34;99353.03;6070010;23;20153;-88
2022/09/08 04:28:58;;;;;;;4.37;2.20;;;;;;;17.96;56.48;99361.84;6069647;23;20163;-88
2022/09/08 04:31:24;;;;;;;4.23;1.40;;;;;;;17.98;56.32;99358.09;6044497;23;20244;-89
2022/09/08 04:33:49;;;;;;;3.30;1.53;;;;;;;18.03;56.43;99360.41;6044539;23;20184;-89
2022/09/08 04:36:18;;;;;;;3.70;1.83;;;;;;;18.08;55.87;99363.53;6069450;23;20510;-88
2022/09/08 04:38:44;;;;;;;3.43;1.87;;;;;;;18.14;55.63;99363.03;6044468;23;20160;-88
2022/09/08 04:41:12;;;;;;;2.40;1.60;;;;;;;18.16;55.95;99366.44;6044482;23;20160;-89
2022/09/08 04:43:38;;;;;;;3.30;1.90;;;;;;;18.24;55.97;99363.97;6069797;23;20163;-88
2022/09/08 04:46:07;;;;;;;5.07;1.87;;;;;;;18.33;55.55;99360.59;6069458;23;20216;-89
2022/09/08 04:48:34;;;;;;;4.17;1.73;;;;;;;18.45;55.34;99362.25;6069755;23;20157;-89
2022/09/08 04:51:01;;;;;;;4.20;2.17;;;;;;;18.54;55.25;99356.22;6069688;23;20149;-89
2022/09/08 04:53:29;;;;;;;4.00;1.43;;;;;;;18.60;55.15;99365.50;6070064;23;20168;-88
2022/09/08 04:55:54;;;;;;;2.80;1.60;;;;;;;18.53;55.27;99373.13;6069302;23;20149;-88
2022/09/08 04:58:21;;;;;;;3.27;1.67;;;;;;;18.48;55.42;99379.75;6044368;23;20484;-88
2022/09/08 05:00:47;;;;;;;3.53;2.00;;;;;;;18.47;55.70;99376.28;6069307;23;20181;-89
2022/09/08 05:03:13;;;;;;;3.77;1.70;;;;;;;18.53;55.59;99381.06;6069603;23;20153;-88
2022/09/08 05:05:38;;;;;;;2.77;1.40;;;;;;;18.52;55.74;99381.22;6069670;23;20279;-88
2022/09/08 05:08:04;;;;;;;3.80;1.63;;;;;;;18.48;55.89;99383.28;6044185;23;20157;-89
2022/09/08 05:10:33;;;;;;;3.60;1.50;;;;;;;18.52;55.76;99379.41;6044285;23;20164;-88
2022/09/08 05:13:00;;;;;;;3.33;1.60;;;;;;;18.69;55.09;99380.66;6069580;23;20623;-88
2022/09/08 05:15:25;;;;;;;3.83;1.73;;;;;;;18.77;55.04;99379.09;6044148;23;20167;-89
2022/09/08 05:17:51;;;;;;;3.43;1.60;;;;;;;18.91;55.10;99376.16;6069444;23;20259;-88
2022/09/08 05:20:17;;;;;;;5.13;1.80;;;;;;;19.15;54.33;99375.06;6044137;23;20599;-88
2022/09/08 05:22:43;;;;;;;4.70;1.70;;;;;;;19.32;54.74;99380.63;6069496;23;20231;-89
2022/09/08 05:25:08;;;;;;;6.90;2.13;;;;;;;19.51;54.19;99375.50;6069167;23;20215;-88
2022/09/08 05:27:34;;;;;;;4.17;1.57;;;;;;;19.70;53.42;99379.22;6069102;23;20157;-89
2022/09/08 05:29:59;;;;;;;3.20;1.50;;;;;;;19.76;53.03;99387.50;6043780;23;20153;-88
2022/09/08 05:32:25;;;;;;;4.27;2.30;;;;;;;19.81;52.91;99387.13;6044114;23;20161;-88
2022/09/08 05:34:50;;;;;;;2.70;1.83;;;;;;;19.82;53.16;99386.13;6068989;23;20153;-89
2022/09/08 05:37:16;;;;;;;3.30;1.63;;;;;;;20.00;53.25;99387.19;6043843;23;20189;-88
2022/09/08 05:39:42;;;;;;;4.03;2.23;;;;;;;20.04;52.84;99381.50;6069307;23;20160;-89
2022/09/08 05:42:08;;;;;;;4.87;1.70;;;;;;;20.14;52.93;99385.03;6068955;23;20160;-89
2022/09/08 05:44:33;;;;;;;8.63;2.40;;;;;;;20.32;53.12;99387.91;6069245;23;20157;-89
2022/09/08 05:46:59;;;;;;;5.57;2.20;;;;;;;20.53;52.62;99396.66;6068907;23;20222;-89
2022/09/08 05:49:24;;;;;;;6.73;2.07;;;;;;;20.73;52.02;99387.72;6043786;23;20157;-89
2022/09/08 05:51:52;;;;;;;7.27;2.00;;;;;;;20.84;51.75;99392.06;6044186;23;20184;-90
2022/09/08 05:54:19;;;;;;;6.00;2.00;;;;;;;20.91;51.27;99387.03;6043715;23;20603;-89
2022/09/08 05:56:45;;;;;;;4.60;2.23;;;;;;;21.05;51.24;99386.59;6043705;23;20496;-89
2022/09/08 05:59:11;;;;;;;4.77;1.67;;;;;;;21.19;51.49;99383.56;6068779;23;20164;-89
2022/09/08 06:01:37;;;;;;;4.27;2.37;;;;;;;21.34;51.31;99382.13;6068779;23;20521;-89
2022/09/08 06:04:03;;;;;;;14.83;5.17;;;;;;;21.53;51.18;99381.25;6068682;23;20565;-89
2022/09/08 06:06:30;;;;;;;16.23;6.50;;;;;;;21.69;50.83;99379.69;6068733;23;20159;-89
2022/09/08 06:08:59;;;;;;;12.83;5.20;;;;;;;21.81;50.31;99388.34;6043888;23;20168;-89
2022/09/08 06:11:25;;;;;;;12.73;4.53;;;;;;;21.91;50.12;99386.50;6043871;23;20181;-89
2022/09/08 06:13:52;;;;;;;14.10;3.87;;;;;;;22.04;50.23;99379.00;6068656;23;20149;-89
2022/09/08 06:16:18;;;;;;;7.13;3.57;;;;;;;22.39;49.63;99381.81;6069184;23;20200;-89
2022/09/08 06:18:45;;;;;;;6.30;2.60;;;;;;;22.67;48.65;99382.63;6043545;23;20169;-89
2022/09/08 06:21:21;;;;;;;5.93;2.20;;;;;;;22.84;48.06;99370.28;6043540;23;20153;-89
2022/09/08 06:23:52;;;;;;;2.43;1.30;;;;;;;22.98;46.06;99370.59;6044609;23;20232;-89
2022/09/08 06:26:30;;;;;;;2.80;1.20;;;;;;;23.14;45.50;99372.56;6068780;23;20220;-88
2022/09/08 06:28:55;;;;;;;10.40;1.70;;;;;;;23.54;44.88;99370.25;6068842;23;20461;-89
2022/09/08 06:31:31;;;;;;;3.70;1.60;;;;;;;23.77;44.00;99367.84;6068861;23;20181;-89
2022/09/08 06:34:02;;;;;;;4.03;1.30;;;;;;;24.24;43.62;99360.28;6043429;23;20157;-89
2022/09/08 06:36:43;;;;;;;8.77;1.83;;;;;;;24.75;42.36;99357.41;6043428;23;20180;-89
2022/09/08 06:39:17;;;;;;;8.53;1.80;;;;;;;25.19;41.40;99360.66;6043451;23;20488;-89
2022/09/08 06:42:02;;;;;;;4.20;1.70;;;;;;;25.45;40.09;99355.09;6068292;23;20141;-90
2022/09/08 06:44:33;;;;;;;3.17;0.97;;;;;;;25.80;39.91;99361.94;6068758;23;20160;-90
2022/09/08 06:46:58;;;;;;;3.20;1.43;;;;;;;26.02;39.89;99369.28;6068445;23;20130;-90
2022/09/08 06:49:34;;;;;;;5.33;1.60;;;;;;;26.33;39.28;99367.50;6043403;23;20157;-91
2022/09/08 06:52:20;;;;;;;2.53;1.42;;;;;;;26.63;39.34;99365.81;6069027;23;20160;-89
2022/09/08 06:55:03;;;;;;;2.70;1.27;;;;;;;26.83;38.98;99369.78;6068358;23;20204;-90
2022/09/08 06:58:06;;;;;;;7.45;1.60;;;;;;;27.12;38.84;99369.06;6043604;23;20181;-90
2022/09/08 07:01:04;;;;;;;5.32;1.48;;;;;;;27.32;38.09;99360.31;6068251;23;20149;-90
2022/09/08 07:04:03;;;;;;;;;;;;;;;;;;;;;
2022/09/08 07:07:07;;;;;;;5.28;1.38;;;;;;;27.92;36.28;99354.00;6064586;23;20492;-91
2022/09/08 07:10:02;;;;;;;3.42;1.75;;;;;;;28.31;37.37;99359.97;6035635;23;20455;-90
2022/09/08 07:12:49;;;;;;;4.78;2.15;;;;;;;28.56;35.76;99360.50;6043143;23;20157;-90
2022/09/08 07:15:44;;;;;;;3.72;1.52;;;;;;;28.99;34.81;99366.78;6043660;23;20145;-91
2022/09/08 07:18:24;;;;;;;4.18;1.60;;;;;;;29.14;34.09;99370.28;6068983;23;20224;-89
2022/09/08 07:21:17;;;;;;;3.75;1.23;;;;;;;29.26;34.18;99363.34;6043200;23;20157;-89
2022/09/08 07:26:58;;;;;;;3.88;1.50;;;;;;;29.49;34.30;99368.50;5953243;24;20159;-90
2022/09/08 07:33:26;;;;;;;3.15;1.23;;;;;;;29.89;32.26;99377.78;5953639;24;20246;-90
2022/09/08 07:36:10;;;;;;;;;;;;;;;;;;;;;
2022/09/08 07:38:49;;;;;;;2.13;1.13;;;;;;;29.68;31.85;99379.50;6068943;23;20208;-90
2022/09/08 07:41:40;;;;;;;;;;;;;;;;;;;;;
2022/09/08 07:45:58;;;;;;;;;;;;;;;;;;;;;
2022/09/08 07:48:15;;;;;;;12.63;3.80;;;;;;;30.30;32.21;99376.75;6028062;23;20611;-89
2022/09/08 07:50:55;;;;;;;6.53;3.00;;;;;;;30.37;31.73;99379.56;6043091;23;20167;-89
2022/09/08 07:53:42;;;;;;;2.75;1.02;;;;;;;30.56;31.60;99378.78;6043459;23;20178;-91
2022/09/08 07:56:49;;;;;;;20.85;9.82;;;;;;;30.59;31.66;99375.66;6044625;23;20189;-91
2022/09/08 07:59:54;;;;;;;11.23;4.63;;;;;;;30.51;31.65;99369.59;6044722;23;20153;-90
2022/09/08 08:06:09;;;;;;;47.35;17.38;;;;;;;30.33;30.73;99365.56;6062829;23;20184;-89
2022/09/08 08:09:39;;;;;;;37.40;16.45;;;;;;;30.27;30.88;99368.22;6070190;23;20142;-93
2022/09/08 08:12:29;;;;;;;18.40;7.22;;;;;;;30.39;30.72;99366.66;5931796;24;20161;-89
2022/09/08 08:15:12;;;;;;;7.18;1.88;;;;;;;30.31;29.56;99358.69;5955355;24;20145;-90
2022/09/08 08:18:02;;;;;;;3.03;1.00;;;;;;;30.43;29.98;99362.50;6062327;23;20264;-89
2022/09/08 08:21:06;;;;;;;6.20;1.80;;;;;;;30.51;29.56;99365.03;6044569;23;20153;-89
2022/09/08 08:23:34;;;;;;;2.10;1.02;;;;;;;30.73;29.15;99358.44;6014385;23;20195;-91
2022/09/08 08:26:52;;;;;;;3.97;1.30;;;;;;;30.94;29.27;99358.31;6043860;23;20169;-90
2022/09/08 08:29:39;;;;;;;5.45;1.38;;;;;;;31.14;27.85;99354.78;6044594;23;20149;-89
2022/09/08 08:32:23;;;;;;;1.85;1.00;;;;;;;30.84;27.14;99352.44;6069417;23;20203;-89
2022/09/08 08:34:59;;;;;;;6.18;2.45;;;;;;;30.97;27.25;99348.94;6070274;23;20164;-90
2022/09/08 08:37:31;;;;;;;2.38;1.17;;;;;;;30.65;27.30;99352.38;6044548;23;20176;-89
2022/09/08 08:39:58;;;;;;;3.45;1.30;;;;;;;30.86;28.14;99352.22;6044491;23;20565;-89
2022/09/08 08:42:46;;;;;;;3.88;1.27;;;;;;;30.97;28.57;99344.38;6044727;23;20640;-89
2022/09/08 08:45:20;;;;;;;6.65;1.70;;;;;;;31.19;27.26;99346.88;6069810;23;20149;-89
2022/09/08 08:48:40;;;;;;;;;;;;;;;;;;;;;
2022/09/08 08:51:45;;;;;;;8.98;3.03;;;;;;;31.37;26.96;99330.81;5927992;24;20232;-91
2022/09/08 08:54:29;;;;;;;2.85;1.10;;;;;;;31.74;26.70;99322.06;6069642;23;20165;-88
2022/09/08 08:57:35;;;;;;;2.95;0.80;;;;;;;31.82;26.91;99321.84;6069724;23;20600;-91
2022/09/08 09:04:19;;;;;;;2.78;1.00;;;;;;;31.98;27.19;99315.13;5979056;23;20165;-91
2022/09/08 09:07:32;;;;;;;2.08;0.82;;;;;;;31.85;27.46;99316.00;6000906;23;20161;-90
2022/09/08 09:13:58;;;;;;;3.00;1.20;;;;;;;32.35;27.45;99300.81;6069022;23;20153;-91
2022/09/08 09:16:33;;;;;;;6.75;1.60;;;;;;;32.32;27.09;99300.41;6044116;23;20267;-89
2022/09/08 09:19:53;;;;;;;2.08;0.88;;;;;;;32.28;27.46;99294.59;6069640;23;20141;-91
2022/09/08 09:23:08;;;;;;;;;;;;;;;;;;;;;
2022/09/08 09:25:46;;;;;;;5.55;1.05;;;;;;;32.49;27.43;99293.47;6069799;23;20213;-91
2022/09/08 09:28:47;;;;;;;2.45;1.13;;;;;;;32.73;26.71;99290.00;6069872;23;20137;-91
2022/09/08 09:31:33;;;;;;;2.60;1.00;;;;;;;33.01;26.46;99282.28;6069505;23;20217;-90
2022/09/08 09:34:34;;;;;;;2.92;1.02;;;;;;;32.54;27.16;99282.81;6070092;23;20137;-89
2022/09/08 09:37:08;;;;;;;8.55;3.88;;;;;;;32.72;26.27;99274.75;6069272;23;20173;-88
2022/09/08 09:39:33;;;;;;;3.00;1.45;;;;;;;32.87;25.88;99283.41;6044946;23;20159;-89
2022/09/08 09:42:28;;;;;;;2.38;1.00;;;;;;;33.18;25.51;99268.97;6068993;23;20447;-88
2022/09/08 09:45:22;;;;;;;2.28;0.85;;;;;;;32.76;26.27;99270.53;6027989;23;20498;-89
2022/09/08 09:48:12;;;;;;;2.72;1.25;;;;;;;32.80;26.12;99266.34;6068914;23;20149;-89
2022/09/08 09:51:10;;;;;;;2.80;1.50;;;;;;;32.66;26.88;99262.03;6043835;23;20590;-89
2022/09/08 09:53:35;;;;;;;3.60;1.00;;;;;;;32.98;25.86;99263.69;6044381;23;20177;-88
2022/09/08 09:56:28;;;;;;;5.25;1.67;;;;;;;33.02;26.42;99253.22;6069359;23;20154;-89
2022/09/08 09:59:12;;;;;;;3.60;1.15;;;;;;;33.42;25.74;99251.81;6069489;23;20576;-89
2022/09/08 10:01:55;;;;;;;2.22;0.95;;;;;;;33.66;25.12;99244.69;6068771;23;20156;-89
2022/09/08 10:05:05;;;;;;;2.63;1.05;;;;;;;34.01;25.27;99252.00;6043711;23;20157;-90
2022/09/08 10:07:48;;;;;;;2.13;1.00;;;;;;;33.85;24.77;99246.38;6069424;23;20458;-88
2022/09/08 10:10:43;;;;;;;2.72;1.20;;;;;;;33.72;25.45;99247.38;6043683;23;20172;-88
2022/09/08 10:13:21;;;;;;;2.15;0.98;;;;;;;33.57;24.88;99246.06;6062991;23;20232;-88
2022/09/08 10:16:04;;;;;;;2.13;1.05;;;;;;;33.56;25.22;99239.81;6068967;23;20546;-88
2022/09/08 10:18:51;;;;;;;2.28;1.25;;;;;;;33.36;24.55;99245.38;6068214;23;20165;-87
2022/09/08 10:21:47;;;;;;;1.60;0.75;;;;;;;33.32;24.82;99230.59;6069316;23;20148;-88
2022/09/08 10:24:27;;;;;;;1.95;0.85;;;;;;;33.21;25.26;99236.78;6068971;23;20141;-88
2022/09/08 10:27:22;;;;;;;2.10;1.00;;;;;;;33.57;25.25;99229.75;6069245;23;20148;-89
2022/09/08 10:29:59;;;;;;;2.10;1.10;;;;;;;33.96;24.22;99229.28;6043771;23;20461;-89
2022/09/08 10:33:03;;;;;;;3.40;1.02;;;;;;;34.03;23.51;99229.19;6043464;23;20164;-90
2022/09/08 10:35:37;;;;;;;2.63;0.95;;;;;;;34.13;24.52;99229.50;6069564;23;20196;-90
2022/09/08 10:38:43;;;;;;;1.42;0.68;;;;;;;34.40;25.13;99209.03;6069153;23;20173;-89
2022/09/08 10:41:10;;;;;;;1.45;0.90;;;;;;;34.24;24.39;99210.53;6043712;23;20165;-88
2022/09/08 10:43:38;;;;;;;3.05;1.45;;;;;;;34.33;25.00;99198.22;6069080;23;20234;-89
2022/09/08 10:46:40;;;;;;;2.50;0.90;;;;;;;34.73;24.25;99197.66;6043737;23;20478;-90
2022/09/08 10:49:21;;;;;;;3.45;1.30;;;;;;;34.72;23.89;99193.28;6068751;23;20137;-90
2022/09/08 10:52:11;;;;;;;3.83;1.40;;;;;;;34.95;24.09;99190.56;6069105;23;20144;-88
2022/09/08 10:54:52;;;;;;;2.65;1.23;;;;;;;34.78;23.52;99186.88;6043108;23;20302;-89
2022/09/08 10:57:29;;;;;;;2.75;1.17;;;;;;;34.97;23.32;99180.25;6043170;23;20181;-88
2022/09/08 11:00:12;;;;;;;1.85;0.88;;;;;;;34.49;24.15;99183.13;6068692;23;20137;-89
2022/09/08 11:02:54;;;;;;;8.93;3.03;;;;;;;34.93;23.93;99176.38;6068673;23;20141;-88
2022/09/08 11:05:48;;;;;;;4.13;2.10;;;;;;;35.02;23.39;99174.94;6068672;23;20142;-88
2022/09/08 11:09:06;;;;;;;8.80;2.85;;;;;;;35.43;23.65;99161.19;6043510;23;20596;-88
2022/09/08 11:11:58;;;;;;;1.60;0.90;;;;;;;35.86;23.45;99159.91;5925914;24;20175;-90
2022/09/08 11:14:54;;;;;;;2.10;0.85;;;;;;;35.97;21.92;99154.41;6068736;23;20141;-89
2022/09/08 11:17:24;;;;;;;3.38;1.17;;;;;;;36.09;22.61;99146.19;6043452;23;20514;-89
2022/09/08 11:20:37;;;;;;;2.72;1.33;;;;;;;35.73;22.88;99145.50;6068876;23;20154;-90
2022/09/08 11:23:14;;;;;;;2.22;1.13;;;;;;;35.57;22.57;99143.53;6067433;23;20247;-88
2022/09/08 11:26:11;;;;;;;3.58;0.80;;;;;;;35.36;22.53;99148.75;6043177;23;20160;-87
2022/09/08 11:28:56;;;;;;;2.88;1.20;;;;;;;35.62;22.54;99142.78;6043742;23;20148;-89
2022/09/08 11:31:32;;;;;;;1.52;0.60;;;;;;;35.49;22.45;99138.41;6070878;23;20512;-88
2022/09/08 11:34:28;;;;;;;1.05;0.65;;;;;;;35.58;22.01;99138.91;6070477;23;20456;-89
2022/09/08 11:36:53;;;;;;;1.42;0.63;;;;;;;36.01;22.21;99124.78;6070455;23;20601;-89
2022/09/08 11:39:57;;;;;;;1.30;0.60;;;;;;;36.37;21.56;99121.59;6070416;23;20160;-89
2022/09/08 11:42:27;;;;;;;2.03;1.02;;;;;;;36.68;21.57;99121.06;6069038;23;20200;-89
2022/09/08 11:45:17;;;;;;;3.63;0.73;;;;;;;36.72;21.76;99122.19;6070389;23;20573;-89
2022/09/08 11:48:28;;;;;;;2.50;1.20;;;;;;;36.22;21.89;99116.69;6070045;23;20228;-88
2022/09/08 11:51:38;;;;;;;3.05;1.25;;;;;;;36.50;21.25;99113.13;6070396;23;20649;-88
2022/09/08 11:54:37;;;;;;;2.25;1.15;;;;;;;36.25;21.35;99121.66;6007152;23;20191;-88
2022/09/08 11:57:15;;;;;;;1.25;0.80;;;;;;;36.16;21.63;99105.94;6070228;23;20256;-88
2022/09/08 12:00:05;;;;;;;2.10;0.80;;;;;;;36.01;22.42;99108.41;6070370;23;20224;-88
2022/09/08 12:03:06;;;;;;;3.10;1.05;;;;;;;36.32;22.18;99105.94;6070132;23;20212;-91
2022/09/08 12:06:00;;;;;;;2.40;1.00;;;;;;;36.92;21.10;99100.63;6070558;23;20217;-90
2022/09/08 12:08:56;;;;;;;1.90;1.00;;;;;;;36.76;21.22;99100.69;6070012;23;20171;-89
2022/09/08 12:11:58;;;;;;;2.65;0.82;;;;;;;36.09;22.16;99102.53;6070202;23;20146;-89
2022/09/08 12:15:21;;;;;;;;;;;;;;;;;;;;;
2022/09/08 12:18:39;;;;;;;1.42;0.63;;;;;;;36.29;21.53;99089.25;6069740;23;20257;-87
2022/09/08 12:21:08;;;;;;;2.72;1.00;;;;;;;36.42;21.19;99080.72;5982753;23;20160;-89
2022/09/08 12:24:08;;;;;;;1.83;0.68;;;;;;;36.44;21.41;99078.56;6069753;23;20180;-89
2022/09/08 12:26:45;;;;;;;2.58;1.02;;;;;;;36.10;21.09;99093.28;5954832;24;20199;-88
2022/09/08 12:29:17;;;;;;;1.52;0.65;;;;;;;35.66;21.83;99079.34;6054995;23;20164;-88
2022/09/08 12:31:48;;;;;;;1.90;0.88;;;;;;;35.87;21.73;99082.44;6070365;23;20149;-90
2022/09/08 12:34:28;;;;;;;2.28;1.00;;;;;;;36.02;20.99;99072.66;6070352;23;20512;-88
2022/09/08 12:37:13;;;;;;;2.03;0.82;;;;;;;35.25;21.68;99082.28;6069513;23;20186;-88
2022/09/08 12:40:07;;;;;;;1.77;0.80;;;;;;;35.38;21.96;99075.75;6069626;23;20142;-88
2022/09/08 12:42:43;;;;;;;1.33;0.50;;;;;;;35.74;21.62;99076.22;6069927;23;20138;-89
2022/09/08 12:45:18;;;;;;;1.67;0.80;;;;;;;35.89;21.47;99077.56;6044459;23;20632;-88
2022/09/08 12:48:20;;;;;;;3.45;1.17;;;;;;;36.57;20.35;99081.00;6069838;23;20137;-88
2022/09/08 12:50:54;;;;;;;2.38;0.70;;;;;;;36.20;20.05;99074.34;6069686;23;20141;-89
2022/09/08 12:54:10;;;;;;;1.17;0.57;;;;;;;35.85;20.26;99073.69;6033274;23;20248;-88